Time;durP1;ratioP1;P1;durP2;ratioP2;P2;SDS_P1;SDS_P2;PMS_P1;PMS_P2;Temp;Humidity;BMP_temperature;BMP_pressure;BME280_temperature;BME280_humidity;BME280_pressure;Samples;Min_cycle;Max_cycle;Signal;HPM_P1;HPM_P2
2022/06/12 00:00:43;;;;;;;;;;;;;;;-143.90;100.00;55154.91;3049771;19;19926;-84
2022/06/12 00:01:44;;;;;;;;;;;;;;;-143.90;100.00;55119.16;3046882;19;19922;-83
2022/06/12 00:02:44;;;;;;;;;;;;;;;-143.90;100.00;55113.22;3048763;19;20040;-83
2022/06/12 00:03:47;;;;;;;;;;;;;;;-143.90;100.00;55107.25;3047925;19;19991;-83
2022/06/12 00:04:47;;;;;;;;;;;;;;;-143.90;100.00;55150.94;3046425;19;19926;-83
2022/06/12 00:05:49;;;;;;;;;;;;;;;-143.90;100.00;55158.88;3046204;19;19959;-84
2022/06/12 00:06:50;;;;;;;;;;;;;;;-143.90;100.00;55125.13;3045557;19;20586;-83
2022/06/12 00:07:51;;;;;;;;;;;;;;;-143.90;100.00;55131.06;3040886;19;19922;-83
2022/06/12 00:08:51;;;;;;;;;;;;;;;-143.90;100.00;55121.16;3044719;19;19927;-83
2022/06/12 00:09:52;;;;;;;;;;;;;;;-143.90;100.00;55125.13;3052606;19;19918;-84
2022/06/12 00:10:54;;;;;;;;;;;;;;;-143.90;100.00;55146.97;3050345;19;19918;-83
2022/06/12 00:11:55;;;;;;;;;;;;;;;-143.90;100.00;55146.97;3050491;19;20009;-83
2022/06/12 00:12:55;;;;;;;;;;;;;;;-143.90;100.00;55103.28;3050427;19;19957;-83
2022/06/12 00:13:58;;;;;;;;;;;;;;;-143.90;100.00;55111.22;3051487;19;19923;-83
2022/06/12 00:14:59;;;;;;;;;;;;;;;-143.90;100.00;55154.91;3051200;19;19923;-83
2022/06/12 00:15:59;;;;;;;;;;;;;;;-143.90;100.00;55103.28;3051001;19;20863;-83
2022/06/12 00:17:00;;;;;;;;;;;;;;;-143.90;100.00;55141.00;3051031;19;20310;-83
2022/06/12 00:18:01;;;;;;;;;;;;;;;-143.90;100.00;55131.06;3052838;19;19923;-83
2022/06/12 00:19:02;;;;;;;;;;;;;;;-143.90;100.00;55125.13;3049732;19;19954;-83
2022/06/12 00:20:03;;;;;;;;;;;;;;;-143.90;100.00;55125.13;3051077;19;19918;-84
2022/06/12 00:21:10;;;;;;;;;;;;;;;-143.90;100.00;55119.16;3052759;19;19949;-84
2022/06/12 00:22:11;;;;;;;;;;;;;;;-143.90;100.00;55123.13;3049022;19;19958;-84
2022/06/12 00:23:13;;;;;;;;;;;;;;;-143.90;100.00;55131.06;3050848;19;20800;-83
2022/06/12 00:24:16;;;;;;;;;;;;;;;-143.90;100.00;55123.13;3048679;19;19930;-84
2022/06/12 00:25:18;;;;;;;;;;;;;;;-143.90;100.00;55170.78;3052542;19;20606;-83
2022/06/12 00:26:21;;;;;;;;;;;;;;;-143.90;100.00;55119.16;3051754;19;19951;-83
2022/06/12 00:27:22;;;;;;;;;;;;;;;-143.90;100.00;55111.22;3049818;19;20557;-83
2022/06/12 00:28:23;;;;;;;;;;;;;;;-143.90;100.00;55144.97;3050854;19;20001;-83
2022/06/12 00:29:25;;;;;;;;;;;;;;;-143.90;100.00;55139.03;3050134;19;19925;-82
2022/06/12 00:30:26;;;;;;;;;;;;;;;-143.90;100.00;55111.22;3050399;19;20090;-83
2022/06/12 00:31:28;;;;;;;;;;;;;;;-143.90;100.00;55123.13;3050894;19;19953;-82
2022/06/12 00:32:30;;;;;;;;;;;;;;;-143.90;100.00;55101.28;3052143;19;19974;-83
2022/06/12 00:33:32;;;;;;;;;;;;;;;-143.90;100.00;55091.38;3050203;19;19933;-82
2022/06/12 00:34:34;;;;;;;;;;;;;;;-143.90;100.00;55150.94;3052045;19;20661;-83
2022/06/12 00:35:35;;;;;;;;;;;;;;;-143.90;100.00;55091.38;3051062;19;19946;-82
2022/06/12 00:36:36;;;;;;;;;;;;;;;-143.90;100.00;55158.88;3050906;19;20036;-82
2022/06/12 00:37:37;;;;;;;;;;;;;;;-143.90;100.00;55158.88;3051276;19;20778;-82
2022/06/12 00:38:39;;;;;;;;;;;;;;;-143.90;100.00;55123.13;3050541;19;20759;-81
2022/06/12 00:39:42;;;;;;;;;;;;;;;-143.90;100.00;55119.16;3052773;19;19926;-81
2022/06/12 00:40:43;;;;;;;;;;;;;;;-143.90;100.00;55152.91;3049835;19;19923;-83
2022/06/12 00:41:45;;;;;;;;;;;;;;;-143.90;100.00;55119.16;3049623;19;20965;-83
2022/06/12 00:42:48;;;;;;;;;;;;;;;-143.90;100.00;55141.00;3047329;19;19922;-83
2022/06/12 00:43:49;;;;;;;;;;;;;;;-143.90;100.00;55135.03;3050449;19;19918;-82
2022/06/12 00:44:50;;;;;;;;;;;;;;;-143.90;100.00;55146.97;3050744;19;19923;-82
2022/06/12 00:45:52;;;;;;;;;;;;;;;-143.90;100.00;55158.88;3048280;19;19935;-82
2022/06/12 00:46:57;;;;;;;;;;;;;;;-143.90;100.00;55139.03;3050624;19;20038;-83
2022/06/12 00:47:58;;;;;;;;;;;;;;;-143.90;100.00;55131.06;3051067;19;19922;-82
2022/06/12 00:48:59;;;;;;;;;;;;;;;-143.90;100.00;55160.84;3049657;19;20427;-83
2022/06/12 00:50:01;;;;;;;;;;;;;;;-143.90;100.00;55123.13;3049433;19;19930;-83
2022/06/12 00:51:12;;;;;;;;;;;;;;;-143.90;100.00;55091.38;3048945;19;19930;-83
2022/06/12 00:52:18;;;;;;;;;;;;;;;-143.90;100.00;55135.03;3051745;19;20672;-82
2022/06/12 00:53:24;;;;;;;;;;;;;;;-143.90;100.00;55101.28;3049783;19;19962;-83
2022/06/12 00:54:24;;;;;;;;;;;;;;;-143.90;100.00;55166.81;3050813;19;20976;-82
2022/06/12 00:55:44;;;;;;;;;;;;;;;-143.90;100.00;55115.19;3050933;19;19960;-82
2022/06/12 00:56:49;;;;;;;;;;;;;;;-143.90;100.00;55152.91;3051770;19;20350;-83
2022/06/12 00:57:51;;;;;;;;;;;;;;;-143.90;100.00;55139.03;3051161;19;19919;-83
2022/06/12 00:58:53;;;;;;;;;;;;;;;-143.90;100.00;55127.09;3050568;19;19923;-83
2022/06/12 00:59:55;;;;;;;;;;;;;;;-143.90;100.00;55146.97;3050327;19;19925;-84
2022/06/12 01:00:56;;;;;;;;;;;;;;;-143.90;100.00;55121.16;3048913;19;19963;-83
2022/06/12 01:01:57;;;;;;;;;;;;;;;-143.90;100.00;55127.09;3050250;19;20767;-83
2022/06/12 01:02:59;;;;;;;;;;;;;;;-143.90;100.00;55139.03;3051836;19;20047;-84
2022/06/12 01:06:39;;;;;;;;;;;;;;;-143.90;100.00;55162.84;3050690;19;20476;-83
2022/06/12 01:07:41;;;;;;;;;;;;;;;-143.90;100.00;55150.94;3049179;19;19923;-83
2022/06/12 01:08:42;;;;;;;;;;;;;;;-143.90;100.00;55143.00;3048934;19;19923;-83
2022/06/12 01:09:43;;;;;;;;;;;;;;;-143.90;100.00;55158.88;3048659;19;20260;-83
2022/06/12 01:10:46;;;;;;;;;;;;;;;-143.90;100.00;55111.22;3050790;19;19922;-84
2022/06/12 01:11:47;;;;;;;;;;;;;;;-143.90;100.00;55152.91;3049358;19;19981;-83
2022/06/12 01:12:50;;;;;;;;;;;;;;;-143.90;100.00;55146.97;3049354;19;20626;-83
2022/06/12 01:13:51;;;;;;;;;;;;;;;-143.90;100.00;55139.03;3047707;19;19926;-84
2022/06/12 01:15:04;;;;;;;;;;;;;;;-143.90;100.00;55139.03;3049677;19;19922;-83
2022/06/12 01:16:08;;;;;;;;;;;;;;;-143.90;100.00;55131.06;3048370;19;19925;-83
2022/06/12 01:17:10;;;;;;;;;;;;;;;-143.90;100.00;55125.13;3050269;19;19926;-84
2022/06/12 01:18:11;;;;;;;;;;;;;;;-143.90;100.00;55137.03;3049879;19;20398;-83
2022/06/12 01:19:24;;;;;;;;;;;;;;;-143.90;100.00;55123.13;3051900;19;19922;-84
2022/06/12 01:20:27;;;;;;;;;;;;;;;-143.90;100.00;55131.06;3048642;19;19923;-83
2022/06/12 01:21:36;;;;;;;;;;;;;;;-143.90;100.00;55188.66;3046912;19;19927;-84
2022/06/12 01:22:37;;;;;;;;;;;;;;;-143.90;100.00;55111.22;3048676;19;20410;-83
2022/06/12 01:23:53;;;;;;;;;;;;;;;-143.90;100.00;55111.22;3048550;19;19918;-84
2022/06/12 01:24:57;;;;;;;;;;;;;;;-143.90;100.00;55135.03;3048067;19;19943;-83
2022/06/12 01:26:05;;;;;;;;;;;;;;;-143.90;100.00;55135.03;3048467;19;20413;-83
2022/06/12 01:27:14;;;;;;;;;;;;;;;-143.90;100.00;55115.19;3049506;19;19927;-84
2022/06/12 01:28:27;;;;;;;;;;;;;;;-143.90;100.00;55146.97;3050016;19;19929;-83
2022/06/12 01:29:32;;;;;;;;;;;;;;;-143.90;100.00;55119.16;3049942;19;19943;-83
2022/06/12 01:30:45;;;;;;;;;;;;;;;-143.90;100.00;55123.13;3047868;19;19927;-84
2022/06/12 01:32:08;;;;;;;;;;;;;;;-143.90;100.00;55103.28;3047668;19;19940;-84
2022/06/12 01:33:15;;;;;;;;;;;;;;;-143.90;100.00;55127.09;3050668;19;19922;-83
2022/06/12 01:34:25;;;;;;;;;;;;;;;-143.90;100.00;55113.22;3047241;19;19934;-84
2022/06/12 01:35:40;;;;;;;;;;;;;;;-143.90;100.00;55109.22;3049435;19;19931;-83
2022/06/12 01:36:42;;;;;;;;;;;;;;;-143.90;100.00;55111.22;3050046;19;19946;-82
2022/06/12 01:37:49;;;;;;;;;;;;;;;-143.90;100.00;55135.03;3048512;19;20362;-83
2022/06/12 01:38:52;;;;;;;;;;;;;;;-143.90;100.00;55135.03;3050573;19;19926;-83
2022/06/12 01:40:16;;;;;;;;;;;;;;;-143.90;100.00;55121.16;3048851;19;19922;-82
2022/06/12 01:41:22;;;;;;;;;;;;;;;-143.90;100.00;55135.03;3049245;19;19926;-83
2022/06/12 01:42:27;;;;;;;;;;;;;;;-143.90;100.00;55150.94;3047203;19;19930;-83
2022/06/12 01:43:35;;;;;;;;;;;;;;;-143.90;100.00;55125.13;3049968;19;19922;-82
2022/06/12 01:44:43;;;;;;;;;;;;;;;-143.90;100.00;55141.00;3048948;19;20890;-83
2022/06/12 01:45:53;;;;;;;;;;;;;;;-143.90;100.00;55139.03;3049307;19;19990;-82
2022/06/12 01:47:13;;;;;;;;;;;;;;;-143.90;100.00;55139.03;3049352;19;19922;-83
2022/06/12 01:48:28;;;;;;;;;;;;;;;-143.90;100.00;55152.91;3049917;19;20401;-83
2022/06/12 01:49:29;;;;;;;;;;;;;;;-143.90;100.00;55135.03;3048666;19;19943;-83
2022/06/12 01:50:30;;;;;;;;;;;;;;;-143.90;100.00;55150.94;3044740;19;19919;-83
2022/06/12 01:51:33;;;;;;;;;;;;;;;-143.90;100.00;55150.94;3050767;19;19939;-83
2022/06/12 01:52:40;;;;;;;;;;;;;;;-143.90;100.00;55131.06;3049210;19;19935;-83
2022/06/12 01:54:00;;;;;;;;;;;;;;;-143.90;100.00;55150.94;3049832;19;19922;-83
2022/06/12 01:55:04;;;;;;;;;;;;;;;-143.90;100.00;55115.19;3051478;19;19926;-83
2022/06/12 01:56:15;;;;;;;;;;;;;;;-143.90;100.00;55146.97;3048896;19;19918;-83
2022/06/12 01:57:22;;;;;;;;;;;;;;;-143.90;100.00;55115.19;3049205;19;20243;-83
2022/06/12 01:58:23;;;;;;;;;;;;;;;-143.90;100.00;55129.09;3049417;19;20585;-83
2022/06/12 01:59:26;;;;;;;;;;;;;;;-143.90;100.00;55158.88;3047788;19;19926;-83
2022/06/12 02:00:27;;;;;;;;;;;;;;;-143.90;100.00;55170.78;3048677;19;19970;-84
2022/06/12 02:01:30;;;;;;;;;;;;;;;-143.90;100.00;55127.09;3048594;19;19975;-83
2022/06/12 02:02:34;;;;;;;;;;;;;;;-143.90;100.00;55131.06;3049190;19;19922;-83
2022/06/12 02:03:40;;;;;;;;;;;;;;;-143.90;100.00;55095.34;3050025;19;19926;-83
2022/06/12 02:04:46;;;;;;;;;;;;;;;-143.90;100.00;55135.03;3047045;19;19955;-83
2022/06/12 02:05:53;;;;;;;;;;;;;;;-143.90;100.00;55125.13;3048758;19;19933;-83
2022/06/12 02:06:54;;;;;;;;;;;;;;;-143.90;100.00;55131.06;3049152;19;20033;-83
2022/06/12 02:08:13;;;;;;;;;;;;;;;-143.90;100.00;55133.06;3049519;19;19919;-83
2022/06/12 02:09:16;;;;;;;;;;;;;;;-143.90;100.00;55095.34;3051024;19;19919;-83
2022/06/12 02:10:31;;;;;;;;;;;;;;;-143.90;100.00;55166.81;3049691;19;20063;-83
2022/06/12 02:13:27;;;;;;;;;;;;;;;-143.90;100.00;55131.06;3049029;19;19922;-82
2022/06/12 02:14:30;;;;;;;;;;;;;;;-143.90;100.00;55162.84;3049516;19;19922;-83
2022/06/12 02:15:32;;;;;;;;;;;;;;;-143.90;100.00;55123.13;3050055;19;20006;-82
2022/06/12 02:16:34;;;;;;;;;;;;;;;-143.90;100.00;55146.97;3047355;19;20011;-82
2022/06/12 02:17:39;;;;;;;;;;;;;;;-143.90;100.00;55139.03;3050877;19;19927;-82
2022/06/12 02:18:45;;;;;;;;;;;;;;;-143.90;100.00;55143.00;3049335;19;19926;-83
2022/06/12 02:19:46;;;;;;;;;;;;;;;-143.90;100.00;55143.00;3049205;19;19911;-82
2022/06/12 02:20:52;;;;;;;;;;;;;;;-143.90;100.00;55121.16;3050024;19;19970;-83
2022/06/12 02:22:02;;;;;;;;;;;;;;;-143.90;100.00;55123.13;3049431;19;19923;-84
2022/06/12 02:23:04;;;;;;;;;;;;;;;-143.90;100.00;55123.13;3048896;19;19986;-83
2022/06/12 02:24:13;;;;;;;;;;;;;;;-143.90;100.00;55121.16;3049710;19;19922;-83
2022/06/12 02:25:22;;;;;;;;;;;;;;;-143.90;100.00;55158.88;3049077;19;19926;-83
2022/06/12 02:26:24;;;;;;;;;;;;;;;-143.90;100.00;55113.22;3049249;19;19927;-83
2022/06/12 02:27:30;;;;;;;;;;;;;;;-143.90;100.00;55174.75;3047624;19;19953;-83
2022/06/12 02:28:36;;;;;;;;;;;;;;;-143.90;100.00;55125.13;3051908;19;20012;-83
2022/06/12 02:29:57;;;;;;;;;;;;;;;-143.90;100.00;55101.28;3047621;19;19918;-84
2022/06/12 02:31:01;;;;;;;;;;;;;;;-143.90;100.00;55119.16;3045964;19;20733;-84
2022/06/12 02:32:03;;;;;;;;;;;;;;;-143.90;100.00;55135.03;3050431;19;19996;-84
2022/06/12 02:33:04;;;;;;;;;;;;;;;-143.90;100.00;55107.25;3047651;19;19990;-84
2022/06/12 02:34:07;;;;;;;;;;;;;;;-143.90;100.00;55170.78;3047911;19;19929;-83
2022/06/12 02:35:09;;;;;;;;;;;;;;;-143.90;100.00;55127.09;3051762;19;20673;-83
2022/06/12 02:36:13;;;;;;;;;;;;;;;-143.90;100.00;55162.84;3048160;19;20758;-83
2022/06/12 02:37:16;;;;;;;;;;;;;;;-143.90;100.00;55156.88;3048684;19;19938;-83
2022/06/12 02:38:26;;;;;;;;;;;;;;;-143.90;100.00;55150.94;3050790;19;19942;-83
2022/06/12 02:39:27;;;;;;;;;;;;;;;-143.90;100.00;55158.88;3048157;19;19971;-84
2022/06/12 02:40:35;;;;;;;;;;;;;;;-143.90;100.00;55156.88;3048327;19;19923;-83
2022/06/12 02:41:40;;;;;;;;;;;;;;;-143.90;100.00;55123.13;3051453;19;19922;-84
2022/06/12 02:42:42;;;;;;;;;;;;;;;-143.90;100.00;55131.06;3050460;19;19933;-84
2022/06/12 02:43:44;;;;;;;;;;;;;;;-143.90;100.00;55166.81;3051055;19;20010;-83
2022/06/12 02:44:55;;;;;;;;;;;;;;;-143.90;100.00;55146.97;3047453;19;20311;-84
2022/06/12 02:46:27;;;;;;;;;;;;;;;-143.90;100.00;55139.03;3050326;19;19923;-84
2022/06/12 02:47:30;;;;;;;;;;;;;;;-143.90;100.00;55139.03;3050809;19;19935;-84
2022/06/12 02:48:31;;;;;;;;;;;;;;;-143.90;100.00;55095.34;3047437;19;19927;-83
2022/06/12 02:49:33;;;;;;;;;;;;;;;-143.90;100.00;55150.94;3048398;19;19919;-83
2022/06/12 02:50:45;;;;;;;;;;;;;;;-143.90;100.00;55123.13;3050442;19;19915;-83
2022/06/12 02:51:59;;;;;;;;;;;;;;;-143.90;100.00;55103.28;3051117;19;20392;-83
2022/06/12 02:53:06;;;;;;;;;;;;;;;-143.90;100.00;55139.03;3050023;19;19951;-84
2022/06/12 02:54:13;;;;;;;;;;;;;;;-143.90;100.00;55137.03;3048042;19;19939;-82
2022/06/12 02:55:14;;;;;;;;;;;;;;;-143.90;100.00;55135.03;3048774;19;19926;-84
2022/06/12 02:56:18;;;;;;;;;;;;;;;-143.90;100.00;55113.22;3051466;19;19923;-83
2022/06/12 02:57:25;;;;;;;;;;;;;;;-143.90;100.00;55150.94;3054696;19;19925;-82
2022/06/12 02:58:34;;;;;;;;;;;;;;;-143.90;100.00;55119.16;3049340;19;19927;-83
2022/06/12 02:59:45;;;;;;;;;;;;;;;-143.90;100.00;55143.00;3049017;19;19927;-84
2022/06/12 03:00:50;;;;;;;;;;;;;;;-143.90;100.00;55123.13;3049745;19;19958;-84
2022/06/12 03:01:54;;;;;;;;;;;;;;;-143.90;100.00;55111.22;3049207;19;19929;-83
2022/06/12 03:03:08;;;;;;;;;;;;;;;-143.90;100.00;55097.31;3047938;19;19958;-84
2022/06/12 03:04:12;;;;;;;;;;;;;;;-143.90;100.00;55099.31;3048171;19;20555;-83
2022/06/12 03:05:13;;;;;;;;;;;;;;;-143.90;100.00;55125.13;3047337;19;19925;-83
2022/06/12 03:06:14;;;;;;;;;;;;;;;-143.90;100.00;55121.16;3044127;19;19927;-83
2022/06/12 03:07:15;;;;;;;;;;;;;;;-143.90;100.00;55095.34;3048371;19;20357;-83
2022/06/12 03:08:18;;;;;;;;;;;;;;;-143.90;100.00;55127.09;3048679;19;19923;-84
2022/06/12 03:09:19;;;;;;;;;;;;;;;-143.90;100.00;55150.94;3047749;19;19933;-84
2022/06/12 03:10:21;;;;;;;;;;;;;;;-143.90;100.00;55131.06;3049249;19;19950;-83
2022/06/12 03:11:24;;;;;;;;;;;;;;;-143.90;100.00;55127.09;3047902;19;19968;-83
2022/06/12 03:12:27;;;;;;;;;;;;;;;-143.90;100.00;55107.25;3048211;19;19923;-83
2022/06/12 03:13:29;;;;;;;;;;;;;;;-143.90;100.00;55111.22;3048858;19;19955;-83
2022/06/12 03:14:30;;;;;;;;;;;;;;;-143.90;100.00;55113.22;3047870;19;20389;-84
2022/06/12 03:15:37;;;;;;;;;;;;;;;-143.90;100.00;55127.09;3049698;19;19931;-83
2022/06/12 03:16:41;;;;;;;;;;;;;;;-143.90;100.00;55127.09;3050330;19;20361;-83
2022/06/12 03:17:42;;;;;;;;;;;;;;;-143.90;100.00;55123.13;3048885;19;20365;-82
2022/06/12 03:18:46;;;;;;;;;;;;;;;-143.90;100.00;55135.03;3048581;19;19926;-83
2022/06/12 03:19:54;;;;;;;;;;;;;;;-143.90;100.00;55083.41;3049279;19;20782;-82
2022/06/12 03:20:55;;;;;;;;;;;;;;;-143.90;100.00;55115.19;3051144;19;19914;-82
2022/06/12 03:22:15;;;;;;;;;;;;;;;-143.90;100.00;55129.09;3049227;19;19919;-81
2022/06/12 03:23:36;;;;;;;;;;;;;;;-143.90;100.00;55143.00;3051454;19;19923;-82
2022/06/12 03:24:37;;;;;;;;;;;;;;;-143.90;100.00;55119.16;3048051;19;19922;-83
2022/06/12 03:25:44;;;;;;;;;;;;;;;-143.90;100.00;55123.13;3048527;19;19914;-82
2022/06/12 03:27:04;;;;;;;;;;;;;;;-143.90;100.00;55143.00;3049921;19;19933;-81
2022/06/12 03:28:05;;;;;;;;;;;;;;;-143.90;100.00;55135.03;3050330;19;20580;-82
2022/06/12 03:29:17;;;;;;;;;;;;;;;-143.90;100.00;55099.31;3049411;19;20007;-81
2022/06/12 03:30:19;;;;;;;;;;;;;;;-143.90;100.00;55150.94;3049815;19;19926;-84
2022/06/12 03:31:26;;;;;;;;;;;;;;;-143.90;100.00;55123.13;3049686;19;20365;-83
2022/06/12 03:32:32;;;;;;;;;;;;;;;-143.90;100.00;55127.09;3048081;19;19937;-82
2022/06/12 03:33:36;;;;;;;;;;;;;;;-143.90;100.00;55139.03;3049783;19;20501;-82
2022/06/12 03:34:41;;;;;;;;;;;;;;;-143.90;100.00;55123.13;3048638;19;20405;-83
2022/06/12 03:35:54;;;;;;;;;;;;;;;-143.90;100.00;55162.84;3047993;19;20581;-82
2022/06/12 03:36:59;;;;;;;;;;;;;;;-143.90;100.00;55115.19;3050702;19;19938;-84
2022/06/12 03:38:02;;;;;;;;;;;;;;;-143.90;100.00;55135.03;3047083;19;20001;-84
2022/06/12 03:39:08;;;;;;;;;;;;;;;-143.90;100.00;55144.97;3050625;19;20015;-84
2022/06/12 03:40:18;;;;;;;;;;;;;;;-143.90;100.00;55139.03;3048077;19;19926;-84
2022/06/12 03:41:27;;;;;;;;;;;;;;;-143.90;100.00;55146.97;3049796;19;19923;-84
2022/06/12 03:42:31;;;;;;;;;;;;;;;-143.90;100.00;55127.09;3048286;19;19922;-84
2022/06/12 03:43:53;;;;;;;;;;;;;;;-143.90;100.00;55139.03;3049403;19;19929;-84
2022/06/12 03:45:05;;;;;;;;;;;;;;;-143.90;100.00;55146.97;3050993;19;19930;-83
2022/06/12 03:46:36;;;;;;;;;;;;;;;-143.90;100.00;55139.03;3050160;19;20037;-83
2022/06/12 03:48:06;;;;;;;;;;;;;;;-143.90;100.00;55127.09;3049532;19;19930;-83
2022/06/12 03:49:15;;;;;;;;;;;;;;;-143.90;100.00;55158.88;3052398;19;19926;-83
2022/06/12 03:50:18;;;;;;;;;;;;;;;-143.90;100.00;55166.81;3048831;19;19946;-82
2022/06/12 03:51:40;;;;;;;;;;;;;;;-143.90;100.00;55139.03;3052285;19;19930;-82
2022/06/12 03:53:01;;;;;;;;;;;;;;;-143.90;100.00;55146.97;3051720;19;19937;-83
2022/06/12 03:54:09;;;;;;;;;;;;;;;-143.90;100.00;55154.91;3049160;19;19922;-83
2022/06/12 03:55:17;;;;;;;;;;;;;;;-143.90;100.00;55139.03;3051270;19;20067;-83
2022/06/12 03:57:53;;;;;;;;;;;;;;;-143.90;100.00;55192.63;3051432;19;20455;-82
2022/06/12 03:58:58;;;;;;;;;;;;;;;-143.90;100.00;55139.03;3050033;19;19930;-83
2022/06/12 04:00:07;;;;;;;;;;;;;;;-143.90;100.00;55119.16;3051157;19;19937;-83
2022/06/12 04:01:12;;;;;;;;;;;;;;;-143.90;100.00;55141.00;3051498;19;19919;-83
2022/06/12 04:02:14;;;;;;;;;;;;;;;-143.90;100.00;55156.88;3051696;19;19919;-83
2022/06/12 04:03:20;;;;;;;;;;;;;;;-143.90;100.00;55131.06;3049222;19;19915;-84
2022/06/12 04:04:21;;;;;;;;;;;;;;;-143.90;100.00;55127.09;3050650;19;19925;-83
2022/06/12 04:05:27;;;;;;;;;;;;;;;-143.90;100.00;55103.28;3048467;19;19919;-82
2022/06/12 04:06:29;;;;;;;;;;;;;;;-143.90;100.00;55131.06;3048741;19;19919;-83
2022/06/12 04:07:30;;;;;;;;;;;;;;;-143.90;100.00;55119.16;3054478;19;20331;-83
2022/06/12 04:08:39;;;;;;;;;;;;;;;-143.90;100.00;55162.84;3051288;19;19961;-83
2022/06/12 04:09:41;;;;;;;;;;;;;;;-143.90;100.00;55131.06;3051278;19;19948;-83
2022/06/12 04:10:44;;;;;;;;;;;;;;;-143.90;100.00;55143.00;3050727;19;20639;-84
2022/06/12 04:11:50;;;;;;;;;;;;;;;-143.90;100.00;55079.44;3049595;19;19936;-83
2022/06/12 04:12:51;;;;;;;;;;;;;;;-143.90;100.00;55115.19;3051385;19;19944;-83
2022/06/12 04:13:52;;;;;;;;;;;;;;;-143.90;100.00;55109.22;3050408;19;20026;-83
2022/06/12 04:14:56;;;;;;;;;;;;;;;-143.90;100.00;55103.28;3051296;19;19932;-83
2022/06/12 04:16:16;;;;;;;;;;;;;;;-143.90;100.00;55091.38;3051856;19;19944;-84
2022/06/12 04:17:18;;;;;;;;;;;;;;;-143.90;100.00;55111.22;3050488;19;20320;-84
2022/06/12 04:18:19;;;;;;;;;;;;;;;-143.90;100.00;55115.19;3051755;19;19927;-84
2022/06/12 04:19:21;;;;;;;;;;;;;;;-143.90;100.00;55089.38;3050675;19;20477;-84
2022/06/12 04:20:23;;;;;;;;;;;;;;;-143.90;100.00;55115.19;3052594;19;19926;-84
2022/06/12 04:21:50;;;;;;;;;;;;;;;-143.90;100.00;55143.00;3048294;19;20396;-84
2022/06/12 04:22:58;;;;;;;;;;;;;;;-143.90;100.00;55095.34;3052214;19;19923;-84
2022/06/12 04:24:01;;;;;;;;;;;;;;;-143.90;100.00;55075.47;3051888;19;19951;-84
2022/06/12 04:25:06;;;;;;;;;;;;;;;-143.90;100.00;55115.19;3050387;19;19958;-84
2022/06/12 04:26:22;;;;;;;;;;;;;;;-143.90;100.00;55063.56;3053243;19;19929;-85
2022/06/12 04:27:24;;;;;;;;;;;;;;;-143.90;100.00;55103.28;3049678;19;20640;-83
2022/06/12 04:28:27;;;;;;;;;;;;;;;-143.90;100.00;55097.31;3054065;19;20029;-83
2022/06/12 04:29:29;;;;;;;;;;;;;;;-143.90;100.00;55111.22;3049287;19;20338;-83
2022/06/12 04:30:32;;;;;;;;;;;;;;;-143.90;100.00;55071.50;3054066;19;19922;-83
2022/06/12 04:31:33;;;;;;;;;;;;;;;-143.90;100.00;55091.38;3050628;19;19981;-83
2022/06/12 04:32:34;;;;;;;;;;;;;;;-143.90;100.00;55107.25;3050660;19;19945;-83
2022/06/12 04:33:50;;;;;;;;;;;;;;;-143.90;100.00;55079.44;3053978;19;19926;-83
2022/06/12 04:34:53;;;;;;;;;;;;;;;-143.90;100.00;55071.50;3052990;19;19918;-83
2022/06/12 04:35:55;;;;;;;;;;;;;;;-143.90;100.00;55059.59;3051568;19;19915;-83
2022/06/12 04:37:01;;;;;;;;;;;;;;;-143.90;100.00;55051.66;3052248;19;19923;-83
2022/06/12 04:38:02;;;;;;;;;;;;;;;-143.90;100.00;55047.69;3052998;19;19930;-83
2022/06/12 04:39:03;;;;;;;;;;;;;;;-143.90;100.00;55075.47;3052087;19;19937;-83
2022/06/12 04:40:05;;;;;;;;;;;;;;;-143.90;100.00;55091.38;3052485;19;19925;-84
2022/06/12 04:41:07;;;;;;;;;;;;;;;-143.90;100.00;55043.72;3054025;19;19927;-84
2022/06/12 04:42:08;;;;;;;;;;;;;;;-143.90;100.00;55087.41;3052921;19;19944;-83
2022/06/12 04:43:09;;;;;;;;;;;;;;;-143.90;100.00;55071.50;3052230;19;20619;-83
2022/06/12 04:44:10;;;;;;;;;;;;;;;-143.90;100.00;55063.56;3051463;19;19930;-83
2022/06/12 04:45:12;;;;;;;;;;;;;;;-143.90;100.00;55067.53;3051840;19;19923;-83
2022/06/12 04:46:13;;;;;;;;;;;;;;;-143.90;100.00;55083.41;3051568;19;19926;-83
2022/06/12 04:47:14;;;;;;;;;;;;;;;-143.90;100.00;55039.75;3050215;19;19955;-83
2022/06/12 04:48:19;;;;;;;;;;;;;;;-143.90;100.00;55069.53;3050742;19;20295;-83
2022/06/12 04:49:21;;;;;;;;;;;;;;;-143.90;100.00;55059.59;3050322;19;20156;-85
2022/06/12 04:50:22;;;;;;;;;;;;;;;-143.90;100.00;55059.59;3049838;19;19923;-85
2022/06/12 04:51:23;;;;;;;;;;;;;;;-143.90;99.78;55039.75;3053278;19;20353;-84
2022/06/12 04:52:25;;;;;;;;;;;;;;;-143.90;96.51;55045.69;3050604;19;19922;-84
2022/06/12 04:53:25;;;;;;;;;;;;;;;-143.90;96.94;55051.66;3050321;19;20292;-83
2022/06/12 04:54:27;;;;;;;;;;;;;;;-143.90;95.83;55035.78;3052979;19;19943;-83
2022/06/12 04:55:28;;;;;;;;;;;;;;;-143.90;92.25;55035.78;3047737;19;19922;-83
2022/06/12 04:56:30;;;;;;;;;;;;;;;-143.90;90.40;55055.63;3053933;19;19922;-84
2022/06/12 04:57:31;;;;;;;;;;;;;;;-143.90;91.64;55047.69;3049482;19;20666;-83
2022/06/12 04:58:32;;;;;;;;;;;;;;;-143.90;92.97;55061.59;3051265;19;19923;-83
2022/06/12 04:59:34;;;;;;;;;;;;;;;-143.90;89.05;55039.75;3051801;19;19918;-84
2022/06/12 05:00:35;;;;;;;;;;;;;;;-143.90;90.08;55053.63;3049808;19;19955;-84
2022/06/12 05:01:35;;;;;;;;;;;;;;;-143.90;89.01;55041.72;3053506;19;19968;-84
2022/06/12 05:02:36;;;;;;;;;;;;;;;-143.90;89.21;55023.84;3052483;19;20019;-84
2022/06/12 05:03:37;;;;;;;;;;;;;;;-143.90;89.16;55035.78;3050170;19;19918;-82
2022/06/12 05:04:39;;;;;;;;;;;;;;;-143.90;87.48;55029.81;3050974;19;19998;-84
2022/06/12 05:05:41;;;;;;;;;;;;;;;-143.90;87.25;55073.50;3049684;19;19955;-83
2022/06/12 05:06:42;;;;;;;;;;;;;;;-143.90;86.03;55035.78;3050754;19;19919;-83
2022/06/12 05:07:42;;;;;;;;;;;;;;;-143.90;86.98;55051.66;3050109;19;20687;-83
2022/06/12 05:08:43;;;;;;;;;;;;;;;-143.90;85.42;55059.59;3052060;19;19942;-83
2022/06/12 05:09:44;;;;;;;;;;;;;;;-143.90;84.44;55059.59;3050964;19;19959;-84
2022/06/12 05:10:46;;;;;;;;;;;;;;;-143.90;82.68;55043.72;3051858;19;20660;-84
2022/06/12 05:11:47;;;;;;;;;;;;;;;-143.90;80.02;55069.53;3050894;19;19922;-82
2022/06/12 05:12:48;;;;;;;;;;;;;;;-143.90;79.49;55071.50;3051082;19;19914;-84
2022/06/12 05:13:49;;;;;;;;;;;;;;;-143.90;83.18;55031.78;3051471;19;19930;-84
2022/06/12 05:14:49;;;;;;;;;;;;;;;-143.90;81.70;55057.59;3052338;19;19922;-84
2022/06/12 05:15:50;;;;;;;;;;;;;;;-143.90;80.01;55019.88;3053922;19;19923;-85
2022/06/12 05:16:58;;;;;;;;;;;;;;;-143.90;80.46;55017.91;3051075;19;19918;-84
2022/06/12 05:17:59;;;;;;;;;;;;;;;-143.90;79.63;55035.78;3054955;19;19919;-84
2022/06/12 05:19:01;;;;;;;;;;;;;;;-143.90;81.84;55051.66;3052381;19;19943;-84
2022/06/12 05:20:02;;;;;;;;;;;;;;;-143.90;81.47;55039.75;3050547;19;19937;-85
2022/06/12 05:21:03;;;;;;;;;;;;;;;-143.90;80.29;55063.56;3051513;19;19947;-85
2022/06/12 05:22:04;;;;;;;;;;;;;;;-143.90;78.19;55033.78;3052579;19;19934;-84
2022/06/12 05:23:05;;;;;;;;;;;;;;;-143.90;76.89;55006.00;3051444;19;19923;-84
2022/06/12 05:24:06;;;;;;;;;;;;;;;-143.90;80.02;55011.94;3053406;19;19915;-84
2022/06/12 05:25:07;;;;;;;;;;;;;;;-143.90;79.15;55083.41;3052342;19;19923;-84
2022/06/12 05:26:09;;;;;;;;;;;;;;;-143.90;79.31;55039.75;3052344;19;19925;-85
2022/06/12 05:27:12;;;;;;;;;;;;;;;-143.90;78.23;55051.66;3060568;19;19923;-84
2022/06/12 05:28:13;;;;;;;;;;;;;;;-143.90;80.11;55063.56;3063068;19;19998;-84
2022/06/12 05:29:20;;;;;;;;;;;;;;;-143.90;80.17;55031.78;3058231;19;19922;-84
2022/06/12 05:30:23;;;;;;;;;;;;;;;-143.90;80.34;55031.78;3055975;19;19929;-84
2022/06/12 05:31:24;;;;;;;;;;;;;;;-143.90;77.23;55047.69;3049586;19;19923;-85